Time;durP1;ratioP1;P1;durP2;ratioP2;P2;SDS_P1;SDS_P2;PMS_P1;PMS_P2;Temp;Humidity;BMP_temperature;BMP_pressure;BME280_temperature;BME280_humidity;BME280_pressure;Samples;Min_cycle;Max_cycle;Signal;HPM_P1;HPM_P2
2022/07/17 00:00:46;;;;;;;7.10;2.65;;;11.50;99.90;;;;;;4982609;28;20042;-61
2022/07/17 00:03:14;;;;;;;5.60;2.60;;;11.60;99.90;;;;;;4992581;28;20039;-61
2022/07/17 00:05:41;;;;;;;5.90;2.53;;;11.50;99.90;;;;;;4993156;28;20085;-61
2022/07/17 00:08:07;;;;;;;4.60;2.60;;;11.50;99.90;;;;;;4984453;28;20487;-61
2022/07/17 00:10:34;;;;;;;5.50;3.03;;;11.50;99.90;;;;;;4981212;28;20038;-61
2022/07/17 00:13:00;;;;;;;6.07;2.90;;;11.50;99.90;;;;;;4991867;28;20580;-61
2022/07/17 00:15:26;;;;;;;4.20;3.00;;;11.50;99.90;;;;;;4988468;28;20034;-61
2022/07/17 00:17:51;;;;;;;3.75;2.53;;;11.50;99.90;;;;;;4981584;28;20047;-61
2022/07/17 00:20:17;;;;;;;7.10;2.50;;;11.40;99.90;;;;;;4992369;28;20042;-61
2022/07/17 00:22:43;;;;;;;5.93;2.80;;;11.30;99.90;;;;;;4992422;28;20042;-61
2022/07/17 00:25:09;;;;;;;5.45;3.03;;;11.30;99.90;;;;;;4979544;28;20103;-61
2022/07/17 00:27:36;;;;;;;6.90;3.20;;;11.40;99.90;;;;;;4988620;28;20509;-61
2022/07/17 00:30:04;;;;;;;8.35;3.10;;;11.40;99.90;;;;;;4992522;28;20035;-61
2022/07/17 00:32:29;;;;;;;6.82;2.92;;;11.30;99.90;;;;;;4983493;28;20141;-61
2022/07/17 00:34:55;;;;;;;4.45;2.70;;;11.30;99.90;;;;;;4976880;28;20466;-61
2022/07/17 00:37:21;;;;;;;6.45;2.80;;;11.30;99.90;;;;;;4991712;28;20045;-61
2022/07/17 00:39:46;;;;;;;4.40;2.78;;;11.20;99.90;;;;;;4992341;28;20101;-61
2022/07/17 00:42:13;;;;;;;6.20;2.75;;;11.10;99.90;;;;;;4969426;28;20132;-61
2022/07/17 00:44:40;;;;;;;5.47;2.88;;;11.00;99.90;;;;;;4991731;28;20109;-61
2022/07/17 00:47:20;;;;;;;3.90;2.60;;;10.90;99.90;;;;;;4992210;28;20039;-61
2022/07/17 00:49:46;;;;;;;4.85;2.75;;;10.80;99.90;;;;;;4980709;28;20522;-61
2022/07/17 00:52:13;;;;;;;4.18;2.72;;;10.70;99.90;;;;;;4989979;28;20030;-61
2022/07/17 00:54:41;;;;;;;7.18;3.20;;;10.60;99.90;;;;;;4991957;28;20498;-61
2022/07/17 00:57:12;;;;;;;6.65;3.05;;;10.60;99.90;;;;;;4985410;28;20047;-61
2022/07/17 00:59:39;;;;;;;5.38;3.28;;;10.70;99.90;;;;;;4980199;28;20077;-61
2022/07/17 01:02:10;;;;;;;6.88;3.88;;;10.70;99.90;;;;;;4991911;28;20129;-61
2022/07/17 01:04:37;;;;;;;5.40;3.88;;;10.70;99.90;;;;;;4988775;28;20038;-61
2022/07/17 01:07:04;;;;;;;5.63;3.70;;;10.70;99.90;;;;;;4978308;28;20042;-62
2022/07/17 01:09:31;;;;;;;7.65;3.63;;;10.70;99.90;;;;;;4989615;28;20050;-62
2022/07/17 01:11:57;;;;;;;4.05;2.17;;;10.60;99.90;;;;;;4992951;28;20402;-62
2022/07/17 01:14:24;;;;;;;5.93;2.58;;;10.40;99.90;;;;;;4982796;28;20031;-62
2022/07/17 01:16:51;;;;;;;11.35;2.85;;;10.40;99.90;;;;;;4986955;28;20131;-62
2022/07/17 01:19:17;;;;;;;7.60;2.72;;;10.40;99.90;;;;;;4993811;28;20035;-62
2022/07/17 01:21:45;;;;;;;80.60;5.45;;;10.30;99.90;;;;;;4982953;28;20050;-61
2022/07/17 01:24:12;;;;;;;46.42;3.88;;;10.30;99.90;;;;;;4984946;28;20035;-62
2022/07/17 01:26:41;;;;;;;15.82;2.40;;;10.20;99.90;;;;;;4993481;28;20046;-62
2022/07/17 01:29:08;;;;;;;2.55;2.20;;;10.10;99.90;;;;;;4974300;28;20035;-62
2022/07/17 01:31:33;;;;;;;2.97;2.20;;;10.10;99.90;;;;;;4981982;28;20047;-62
2022/07/17 01:34:01;;;;;;;4.45;3.00;;;10.20;99.90;;;;;;4992953;28;20053;-62
2022/07/17 01:36:26;;;;;;;3.45;1.80;;;10.20;99.90;;;;;;4993789;28;20039;-62
2022/07/17 01:38:52;;;;;;;4.63;1.80;;;10.20;99.90;;;;;;4978666;28;20047;-61
2022/07/17 01:41:18;;;;;;;5.68;1.60;;;10.20;99.90;;;;;;5013723;23;20095;-64
2022/07/17 01:47:25;;;;;;;103.43;4.40;;;10.10;99.90;;;;;;5007322;28;20077;-63
2022/07/17 01:50:43;;;;;;;42.70;3.17;;;9.90;99.90;;;;;;4987124;28;20030;-63
2022/07/17 01:53:08;;;;;;;40.15;3.63;;;9.80;99.90;;;;;;4961412;28;20462;-64
2022/07/17 01:55:34;;;;;;;36.88;3.05;;;9.70;99.90;;;;;;4990271;28;20077;-64
2022/07/17 01:57:59;;;;;;;5.43;2.53;;;9.70;99.90;;;;;;4987085;28;20038;-64
2022/07/17 02:00:26;;;;;;;4.93;3.65;;;9.80;99.90;;;;;;4995064;28;20038;-64
2022/07/17 02:02:51;;;;;;;24.23;4.10;;;9.80;99.90;;;;;;4976390;28;20055;-63
2022/07/17 02:05:17;;;;;;;5.32;3.45;;;9.80;99.90;;;;;;4973976;28;20331;-64
2022/07/17 02:20:49;;;;;;;5.93;3.50;;;9.90;99.90;;;;;;6103668;23;20010;-63
2022/07/17 02:23:15;;;;;;;5.40;3.78;;;9.90;99.90;;;;;;4960858;28;20174;-64
2022/07/17 02:25:41;;;;;;;7.00;3.80;;;9.90;99.90;;;;;;4955463;28;20043;-66
2022/07/17 02:28:06;;;;;;;3.75;2.80;;;9.90;99.90;;;;;;4954722;28;20055;-64
2022/07/17 02:30:32;;;;;;;4.47;3.00;;;9.90;99.90;;;;;;4953786;28;20493;-63
2022/07/17 02:32:58;;;;;;;4.07;3.00;;;9.90;99.90;;;;;;4948117;28;20786;-65
2022/07/17 02:35:23;;;;;;;4.53;3.20;;;9.90;99.90;;;;;;4955893;29;20043;-64
2022/07/17 02:54:37;;;;;;;7.07;3.20;;;9.80;99.90;;;;;;5648058;23;21087;-64
2022/07/17 02:57:03;;;;;;;3.72;2.53;;;9.80;99.90;;;;;;4950454;28;20039;-64
2022/07/17 02:59:29;;;;;;;3.95;2.30;;;9.80;99.90;;;;;;4954598;28;20034;-64
2022/07/17 03:01:55;;;;;;;2.25;2.05;;;9.60;99.90;;;;;;4952726;28;20044;-64
2022/07/17 03:13:13;;;;;;;4.18;2.10;;;9.30;99.90;;;;;;5577735;23;20413;-64
2022/07/17 03:15:39;;;;;;;1.60;1.38;;;9.20;99.90;;;;;;4913662;29;20040;-61
2022/07/17 03:33:18;;;;;;;3.22;1.55;;;8.90;99.90;;;;;;5063533;23;20056;-64
2022/07/17 03:35:44;;;;;;;3.00;2.10;;;8.90;99.90;;;;;;4933022;29;20044;-64
2022/07/17 03:38:09;;;;;;;3.47;2.38;;;8.90;99.90;;;;;;4936971;28;20112;-64
2022/07/17 03:40:35;;;;;;;2.97;2.25;;;8.90;99.90;;;;;;4940741;28;20118;-64
2022/07/17 03:53:52;;;;;;;2.47;2.00;;;9.10;99.90;;;;;;6091510;23;20071;-63
2022/07/17 03:56:18;;;;;;;2.60;2.00;;;9.00;99.90;;;;;;4954717;28;20474;-64
2022/07/17 03:58:44;;;;;;;4.13;1.80;;;8.90;99.90;;;;;;4953895;28;20503;-65
2022/07/17 04:01:09;;;;;;;2.55;2.13;;;9.00;99.90;;;;;;4951487;28;20055;-63
2022/07/17 04:03:35;;;;;;;2.53;2.17;;;9.00;99.90;;;;;;4959379;28;20384;-65
2022/07/17 04:06:01;;;;;;;4.97;2.40;;;9.00;99.90;;;;;;4935661;29;20131;-65
2022/07/17 04:08:26;;;;;;;4.63;2.92;;;9.10;99.90;;;;;;5729793;23;20006;-64
2022/07/17 04:10:52;;;;;;;5.85;3.38;;;9.20;99.90;;;;;;4950268;28;20058;-63
2022/07/17 04:13:18;;;;;;;5.60;3.40;;;9.20;99.90;;;;;;4946189;29;20043;-64
2022/07/17 04:15:49;;;;;;;7.28;4.25;;;9.20;99.90;;;;;;4952961;29;20039;-64
2022/07/17 04:18:22;;;;;;;6.35;4.03;;;9.30;99.90;;;;;;4949062;28;20395;-63
2022/07/17 04:20:49;;;;;;;3.50;2.63;;;9.40;99.90;;;;;;4940582;29;20044;-63
2022/07/17 04:23:15;;;;;;;3.72;2.50;;;9.40;99.90;;;;;;4947077;29;20070;-64
2022/07/17 04:25:41;;;;;;;3.63;2.15;;;9.50;99.90;;;;;;4943038;29;20044;-64
2022/07/17 04:39:09;;;;;;;5.50;3.47;;;10.00;99.90;;;;;;5237680;23;20055;-64
2022/07/17 04:57:07;;;;;;;8.05;4.85;;;10.40;99.90;;;;;;5267352;23;20503;-64
2022/07/17 06:32:43;;;;;;;6.45;4.00;;;13.70;99.90;;;;;;6013508;23;20033;-65
2022/07/17 06:35:10;;;;;;;10.80;4.10;;;13.60;99.90;;;;;;4994185;28;20121;-66
2022/07/17 06:37:36;;;;;;;9.60;3.78;;;13.60;99.90;;;;;;5006106;28;20097;-65
2022/07/17 06:45:13;;;;;;;10.57;3.30;;;13.70;99.90;;;;;;5042615;23;20051;-64
2022/07/17 06:47:38;;;;;;;8.15;3.20;;;13.80;99.90;;;;;;4951704;29;20032;-64
2022/07/17 06:50:05;;;;;;;8.73;2.90;;;13.80;99.90;;;;;;5117885;23;20424;-65
2022/07/17 06:52:30;;;;;;;14.75;3.30;;;13.90;99.90;;;;;;4950180;29;20043;-65
2022/07/17 07:20:32;;;;;;;7.53;2.80;;;14.90;99.90;;;;;;4953238;29;20423;-66
2022/07/17 07:22:58;;;;;;;6.47;2.20;;;15.00;99.90;;;;;;4943493;28;20496;-66
2022/07/17 07:29:05;;;;;;;3.38;2.00;;;15.30;99.90;;;;;;5510142;23;20054;-64
2022/07/17 07:52:49;;;;;;;5.90;1.77;;;15.90;99.90;;;;;;5026732;28;20052;-66
2022/07/17 07:55:15;;;;;;;5.38;1.90;;;16.10;99.90;;;;;;4987825;28;20121;-64
2022/07/17 07:58:10;;;;;;;5.18;1.70;;;16.20;99.90;;;;;;4994240;28;20093;-68
2022/07/17 08:00:37;;;;;;;4.80;1.73;;;16.20;99.90;;;;;;5407041;23;20490;-65
2022/07/17 08:03:03;;;;;;;5.25;1.77;;;16.30;99.90;;;;;;4947452;29;20038;-64
2022/07/17 08:13:15;;;;;;;6.45;1.80;;;16.50;99.90;;;;;;5699922;23;20042;-66
2022/07/17 08:16:41;;;;;;;7.40;2.22;;;16.60;99.90;;;;;;4978625;28;20138;-65
2022/07/17 08:24:36;;;;;;;7.72;1.77;;;16.80;99.90;;;;;;4925787;29;20055;-66
2022/07/17 08:27:01;;;;;;;8.38;1.70;;;16.80;99.90;;;;;;4991363;23;20038;-66
2022/07/17 08:29:27;;;;;;;7.05;1.70;;;16.90;99.90;;;;;;4945115;29;20047;-65
2022/07/17 08:37:03;;;;;;;5.38;1.90;;;17.10;99.90;;;;;;5238923;23;20469;-65
2022/07/17 08:39:29;;;;;;;6.93;2.00;;;17.20;99.90;;;;;;5002817;28;20026;-65
2022/07/17 08:41:55;;;;;;;4.85;1.75;;;17.30;99.90;;;;;;4988864;28;20609;-65
2022/07/17 08:47:58;;;;;;;8.63;2.00;;;17.20;99.90;;;;;;5991660;23;20010;-66
2022/07/17 08:50:29;;;;;;;7.97;2.83;;;17.30;99.90;;;;;;4984353;28;20545;-66
2022/07/17 09:01:39;;;;;;;4.78;1.70;;;17.80;99.90;;;;;;4918461;29;20051;-66
2022/07/17 09:04:06;;;;;;;2.58;1.50;;;18.00;99.90;;;;;;4916972;29;20055;-65
2022/07/17 09:06:32;;;;;;;4.80;1.55;;;17.90;99.90;;;;;;4910081;29;20555;-65
2022/07/17 09:09:06;;;;;;;6.55;1.95;;;17.90;99.90;;;;;;4918496;29;20123;-65
2022/07/17 09:15:19;;;;;;;5.30;1.97;;;18.00;99.90;;;;;;5004926;23;20054;-65
2022/07/17 09:17:52;;;;;;;7.57;2.70;;;18.00;99.90;;;;;;4984939;28;20046;-65
2022/07/17 09:20:20;;;;;;;4.45;1.50;;;18.10;99.90;;;;;;4979934;28;20035;-64
2022/07/17 09:22:56;;;;;;;6.07;1.73;;;18.20;99.90;;;;;;4984256;28;20074;-65
2022/07/17 09:25:32;;;;;;;5.85;1.67;;;18.20;99.90;;;;;;4981030;28;20085;-64
2022/07/17 09:28:01;;;;;;;6.30;1.70;;;18.30;99.90;;;;;;4986141;28;20045;-64
2022/07/17 09:30:27;;;;;;;4.82;1.50;;;18.30;99.90;;;;;;4983543;28;20158;-64
2022/07/17 09:32:55;;;;;;;4.53;1.75;;;18.30;99.90;;;;;;4971086;28;20122;-64
2022/07/17 09:35:22;;;;;;;3.50;1.50;;;18.60;99.90;;;;;;4976680;28;20042;-64
2022/07/17 09:37:50;;;;;;;6.30;1.80;;;18.70;99.90;;;;;;4979244;28;20043;-64
2022/07/17 09:41:09;;;;;;;2.55;1.50;;;18.90;99.90;;;;;;4979187;28;20030;-65
2022/07/17 09:43:02;;;;;;;4.68;1.63;;;19.10;99.90;;;;;;4982002;28;20130;-65
2022/07/17 09:45:28;;;;;;;5.18;1.60;;;19.20;99.90;;;;;;4982917;28;20080;-65
2022/07/17 09:47:55;;;;;;;4.53;1.63;;;19.40;99.90;;;;;;4990295;28;20117;-65
2022/07/17 09:50:23;;;;;;;6.78;1.95;;;19.60;99.90;;;;;;4988499;28;20058;-64
2022/07/17 09:52:52;;;;;;;3.63;1.42;;;19.80;99.90;;;;;;4980306;28;20046;-64
2022/07/17 09:55:20;;;;;;;4.95;1.80;;;19.60;99.90;;;;;;4986524;28;20418;-64
2022/07/17 09:57:47;;;;;;;4.38;2.00;;;19.60;99.90;;;;;;4990111;28;20486;-65
2022/07/17 10:00:13;;;;;;;5.53;1.70;;;19.60;98.70;;;;;;4980880;28;20045;-65
2022/07/17 10:02:45;;;;;;;5.28;1.90;;;19.70;99.90;;;;;;4989287;28;20043;-65
2022/07/17 10:05:12;;;;;;;2.78;1.50;;;19.80;99.90;;;;;;4983285;28;20335;-64
2022/07/17 10:07:45;;;;;;;3.13;1.52;;;19.90;99.90;;;;;;4990317;28;20152;-64
2022/07/17 10:10:13;;;;;;;3.55;1.60;;;20.00;99.90;;;;;;4985999;28;20026;-64
2022/07/17 10:12:42;;;;;;;6.10;1.48;;;20.00;99.90;;;;;;4993030;28;20097;-65
2022/07/17 10:15:08;;;;;;;4.10;1.58;;;19.90;99.60;;;;;;4974365;28;20045;-65
2022/07/17 10:17:34;;;;;;;3.65;1.92;;;20.00;99.90;;;;;;4982494;28;20490;-64
2022/07/17 10:20:00;;;;;;;6.30;1.42;;;20.20;99.90;;;;;;4992814;28;20049;-64
2022/07/17 10:22:26;;;;;;;2.45;1.40;;;20.20;99.90;;;;;;4993604;28;20038;-64
2022/07/17 10:24:54;;;;;;;4.35;1.60;;;20.30;99.60;;;;;;4991097;28;20347;-65
2022/07/17 10:27:21;;;;;;;4.07;1.60;;;20.40;99.90;;;;;;4986441;28;20034;-65
2022/07/17 10:29:47;;;;;;;5.22;1.60;;;20.50;99.60;;;;;;4993465;28;20102;-64
2022/07/17 10:32:18;;;;;;;6.13;1.67;;;20.50;98.70;;;;;;4991207;28;20439;-65
2022/07/17 10:34:48;;;;;;;;;;;20.50;99.40;;;;;;4989581;28;20114;-65
2022/07/17 10:37:23;;;;;;;6.55;1.50;;;20.60;98.50;;;;;;4993296;28;19921;-65
2022/07/17 10:39:53;;;;;;;3.47;1.38;;;20.70;99.20;;;;;;4993276;28;20034;-64
2022/07/17 10:42:47;;;;;;;3.70;1.60;;;20.70;98.80;;;;;;4981984;28;20042;-64
2022/07/17 10:45:21;;;;;;;2.60;1.50;;;20.90;98.20;;;;;;4982883;28;20045;-65
2022/07/17 10:47:50;;;;;;;5.07;1.58;;;21.00;98.20;;;;;;4992968;28;20184;-64
2022/07/17 10:50:18;;;;;;;5.05;1.70;;;21.10;99.20;;;;;;4983901;28;20034;-65
2022/07/17 10:52:57;;;;;;;4.03;1.67;;;21.20;99.40;;;;;;4989659;28;20135;-64
2022/07/17 10:55:22;;;;;;;6.13;1.80;;;21.20;97.70;;;;;;4993284;28;20053;-65
2022/07/17 10:57:49;;;;;;;5.70;1.70;;;21.20;98.50;;;;;;4990528;28;20391;-64
2022/07/17 11:00:16;;;;;;;3.28;1.38;;;21.20;98.30;;;;;;4981725;28;20050;-64
2022/07/17 11:02:42;;;;;;;4.75;1.60;;;21.20;98.20;;;;;;4989782;28;20046;-65
2022/07/17 11:05:10;;;;;;;3.05;1.50;;;21.30;98.90;;;;;;4993181;28;20049;-65
2022/07/17 11:07:35;;;;;;;3.25;1.38;;;21.60;98.60;;;;;;4983591;28;20034;-64
2022/07/17 11:10:01;;;;;;;4.35;1.77;;;21.50;97.50;;;;;;4992113;28;20378;-64
2022/07/17 11:12:34;;;;;;;3.38;1.70;;;21.50;97.60;;;;;;4992824;28;20042;-65
2022/07/17 11:15:03;;;;;;;1.65;1.30;;;21.50;97.30;;;;;;4989191;28;20042;-65
2022/07/17 11:17:29;;;;;;;6.88;1.83;;;21.60;97.00;;;;;;4988091;28;20470;-65
2022/07/17 11:19:58;;;;;;;3.80;1.48;;;21.80;97.00;;;;;;4992556;28;20026;-65
2022/07/17 11:22:24;;;;;;;4.32;1.60;;;22.00;97.10;;;;;;4989424;28;20038;-65
2022/07/17 11:24:50;;;;;;;4.20;1.70;;;22.20;97.00;;;;;;4986226;28;20031;-64
2022/07/17 11:27:25;;;;;;;9.93;1.80;;;22.40;96.80;;;;;;4992329;28;20077;-64
2022/07/17 11:29:53;;;;;;;6.53;1.90;;;22.60;95.80;;;;;;4992279;28;20046;-64
2022/07/17 11:32:19;;;;;;;4.68;1.80;;;22.60;96.40;;;;;;4989770;28;20353;-64
2022/07/17 11:34:45;;;;;;;2.75;1.60;;;22.60;97.10;;;;;;4980861;28;20042;-64
2022/07/17 11:37:11;;;;;;;6.63;1.80;;;22.50;96.40;;;;;;4992392;28;20038;-65
2022/07/17 11:39:48;;;;;;;4.60;1.67;;;22.50;96.50;;;;;;4986754;28;20104;-65
2022/07/17 11:42:18;;;;;;;4.45;1.80;;;22.70;95.30;;;;;;4985019;28;20042;-65
2022/07/17 11:44:45;;;;;;;3.50;1.60;;;22.70;96.60;;;;;;4991910;28;20077;-65
2022/07/17 11:47:12;;;;;;;4.50;1.60;;;22.90;96.20;;;;;;4992440;28;20035;-64
2022/07/17 11:49:40;;;;;;;4.07;1.80;;;23.00;95.60;;;;;;4981431;28;20039;-65
2022/07/17 11:52:10;;;;;;;3.42;1.50;;;23.10;95.00;;;;;;4983791;28;20057;-65
2022/07/17 11:54:49;;;;;;;3.05;1.60;;;23.10;94.70;;;;;;4991902;28;20050;-65
2022/07/17 11:57:17;;;;;;;6.55;1.70;;;23.10;93.00;;;;;;4980702;28;20042;-65
2022/07/17 11:59:43;;;;;;;4.90;1.73;;;23.00;94.50;;;;;;4991203;28;20042;-64
2022/07/17 12:02:17;;;;;;;4.30;1.77;;;23.10;94.80;;;;;;4991912;28;20498;-65
2022/07/17 12:04:55;;;;;;;5.35;1.92;;;23.00;92.60;;;;;;4988412;28;20038;-65
2022/07/17 12:07:22;;;;;;;5.03;1.73;;;22.80;91.90;;;;;;4984634;28;20043;-65
2022/07/17 12:09:48;;;;;;;4.72;1.77;;;22.90;94.10;;;;;;4991847;28;20062;-64
2022/07/17 12:12:25;;;;;;;5.93;1.92;;;23.10;94.30;;;;;;4989158;28;20089;-65
2022/07/17 12:14:57;;;;;;;4.88;1.63;;;23.10;90.60;;;;;;4975196;28;20562;-65
2022/07/17 12:17:23;;;;;;;4.45;1.70;;;23.20;93.10;;;;;;4991307;28;20487;-65
2022/07/17 12:19:51;;;;;;;6.10;1.88;;;23.30;94.10;;;;;;4986947;28;20042;-65
2022/07/17 12:22:16;;;;;;;3.55;1.70;;;23.60;94.30;;;;;;4978833;28;20088;-65
2022/07/17 12:24:44;;;;;;;3.33;1.70;;;23.70;94.40;;;;;;4986376;28;20039;-65
2022/07/17 12:27:13;;;;;;;4.47;1.80;;;23.80;93.90;;;;;;4998882;28;20034;-64
2022/07/17 12:29:40;;;;;;;5.40;1.83;;;23.80;92.30;;;;;;4984927;28;20042;-65
2022/07/17 12:32:10;;;;;;;4.60;1.77;;;23.90;94.20;;;;;;4975299;28;20039;-64
2022/07/17 12:34:46;;;;;;;5.07;1.85;;;24.10;93.10;;;;;;4978385;28;20086;-65
2022/07/17 12:37:19;;;;;;;5.18;1.92;;;24.10;93.10;;;;;;4983197;28;20034;-65
2022/07/17 12:39:46;;;;;;;4.32;1.92;;;24.10;92.10;;;;;;4979115;28;20077;-65
2022/07/17 12:42:13;;;;;;;3.38;1.60;;;24.10;92.20;;;;;;4970645;28;20503;-65
2022/07/17 12:44:39;;;;;;;5.00;1.90;;;24.10;93.10;;;;;;4986395;28;20038;-66
2022/07/17 12:47:04;;;;;;;3.38;1.75;;;24.10;92.50;;;;;;4977400;28;20073;-66
2022/07/17 12:49:30;;;;;;;6.47;1.70;;;24.10;91.90;;;;;;4990604;28;20037;-66
2022/07/17 12:51:57;;;;;;;7.13;1.70;;;24.30;93.20;;;;;;4990601;28;20031;-66
2022/07/17 12:54:23;;;;;;;4.10;1.88;;;24.40;92.40;;;;;;4986286;28;20049;-66
2022/07/17 12:56:49;;;;;;;4.10;1.90;;;24.30;91.20;;;;;;4976480;28;20125;-66
2022/07/17 12:59:15;;;;;;;5.80;2.22;;;24.50;92.30;;;;;;4990875;28;20049;-66
2022/07/17 13:01:40;;;;;;;3.65;1.77;;;24.70;91.60;;;;;;4990666;28;20053;-66
2022/07/17 13:04:06;;;;;;;5.63;1.88;;;24.70;90.90;;;;;;4981871;28;20038;-66
2022/07/17 13:06:35;;;;;;;4.95;2.00;;;24.60;91.40;;;;;;4986312;28;20053;-66
2022/07/17 13:09:01;;;;;;;4.78;1.95;;;24.80;91.70;;;;;;4985059;28;20046;-66
2022/07/17 13:11:27;;;;;;;5.63;1.90;;;24.80;90.70;;;;;;4983956;28;20034;-66
2022/07/17 13:13:53;;;;;;;4.55;1.83;;;24.90;89.50;;;;;;4984898;28;20046;-66
2022/07/17 13:16:19;;;;;;;3.88;2.17;;;24.90;89.00;;;;;;4987781;28;20106;-66
2022/07/17 13:18:45;;;;;;;5.63;2.22;;;25.10;91.30;;;;;;4978518;28;20115;-65
2022/07/17 13:21:11;;;;;;;4.93;2.35;;;25.10;87.30;;;;;;4978925;28;20046;-66
2022/07/17 13:23:37;;;;;;;7.43;2.05;;;25.30;90.30;;;;;;4979459;28;20038;-65
2022/07/17 13:26:04;;;;;;;5.10;1.88;;;25.50;88.90;;;;;;4990229;28;20406;-66
2022/07/17 13:28:30;;;;;;;3.92;2.20;;;25.50;86.90;;;;;;4978730;28;20039;-66
2022/07/17 13:30:56;;;;;;;5.72;1.98;;;25.70;87.50;;;;;;4970050;28;20038;-66
2022/07/17 13:33:22;;;;;;;4.03;1.98;;;25.80;86.60;;;;;;4975958;28;20395;-66
2022/07/17 13:35:48;;;;;;;5.68;2.08;;;25.90;86.40;;;;;;4981379;28;20077;-66
2022/07/17 13:38:13;;;;;;;3.13;2.20;;;26.10;85.90;;;;;;4988031;28;20034;-65
2022/07/17 13:40:39;;;;;;;4.65;2.20;;;26.20;87.10;;;;;;4990539;28;20096;-65
2022/07/17 13:43:05;;;;;;;5.00;2.00;;;26.20;86.10;;;;;;4990191;28;20512;-66
2022/07/17 13:45:31;;;;;;;5.57;2.40;;;26.40;83.30;;;;;;4987037;28;20045;-66
2022/07/17 13:47:58;;;;;;;5.30;2.30;;;26.50;84.90;;;;;;4976713;28;20039;-66
2022/07/17 13:50:24;;;;;;;4.00;2.38;;;26.40;82.80;;;;;;4993675;28;20038;-65
2022/07/17 13:52:50;;;;;;;4.63;2.17;;;26.40;85.40;;;;;;4986594;28;20047;-65
2022/07/17 13:55:15;;;;;;;6.13;2.40;;;26.50;84.50;;;;;;4987108;28;20034;-65
2022/07/17 13:57:42;;;;;;;6.07;3.40;;;26.40;82.50;;;;;;4994032;28;20520;-65
2022/07/17 14:00:09;;;;;;;6.32;2.58;;;26.40;79.70;;;;;;4993343;28;20038;-65
2022/07/17 14:02:36;;;;;;;7.75;2.47;;;26.40;80.20;;;;;;4985365;28;20042;-65
2022/07/17 14:05:04;;;;;;;4.70;2.42;;;26.60;83.10;;;;;;4983634;28;20040;-65
2022/07/17 14:07:29;;;;;;;3.50;2.40;;;26.80;79.70;;;;;;4990699;28;20042;-65
2022/07/17 14:09:55;;;;;;;7.35;2.90;;;26.70;76.60;;;;;;4982557;28;20093;-66
2022/07/17 14:12:21;;;;;;;4.43;2.58;;;26.90;78.70;;;;;;4983565;28;20035;-65
2022/07/17 14:14:47;;;;;;;5.35;2.65;;;27.00;77.30;;;;;;4990637;28;20054;-65
2022/07/17 14:17:12;;;;;;;6.03;2.83;;;27.00;77.30;;;;;;4991154;28;20123;-65
2022/07/17 14:19:38;;;;;;;7.18;2.80;;;27.30;77.30;;;;;;4977071;28;20050;-65
2022/07/17 14:22:04;;;;;;;4.85;2.72;;;27.50;74.70;;;;;;4983512;28;20125;-66
2022/07/17 14:24:30;;;;;;;5.93;2.80;;;27.80;73.90;;;;;;4989866;28;20050;-65
2022/07/17 14:26:55;;;;;;;4.32;2.50;;;27.90;72.00;;;;;;4982925;28;20117;-66
2022/07/17 14:29:21;;;;;;;6.85;2.65;;;28.20;73.80;;;;;;4990217;28;20654;-66
2022/07/17 14:31:47;;;;;;;5.05;2.80;;;28.10;72.40;;;;;;4990251;28;20042;-66
2022/07/17 14:34:14;;;;;;;4.35;3.00;;;28.30;70.00;;;;;;4987245;28;20053;-65
2022/07/17 14:36:40;;;;;;;5.85;2.92;;;28.60;69.40;;;;;;4981283;28;20526;-66
2022/07/17 14:39:05;;;;;;;6.50;2.85;;;28.80;67.50;;;;;;4990379;28;20582;-66
2022/07/17 14:41:31;;;;;;;5.43;3.00;;;28.60;65.40;;;;;;4989950;28;20034;-66
2022/07/17 14:43:57;;;;;;;6.50;3.17;;;28.40;63.90;;;;;;4972806;28;20388;-66
2022/07/17 14:46:23;;;;;;;6.05;3.03;;;28.40;62.90;;;;;;4987252;28;20124;-66
2022/07/17 14:48:49;;;;;;;7.95;3.22;;;28.40;64.40;;;;;;4989563;28;20141;-66
2022/07/17 14:51:15;;;;;;;5.82;2.97;;;28.40;65.10;;;;;;4975890;28;20121;-66
2022/07/17 14:53:41;;;;;;;7.22;3.30;;;28.40;65.70;;;;;;4979369;28;20055;-65
2022/07/17 14:56:06;;;;;;;6.85;3.00;;;28.40;65.60;;;;;;4989372;28;20057;-65
2022/07/17 14:58:32;;;;;;;6.03;3.13;;;28.50;64.50;;;;;;4984504;28;20046;-65
2022/07/17 15:00:58;;;;;;;7.47;3.28;;;28.40;64.10;;;;;;4970494;28;20050;-66
2022/07/17 15:03:23;;;;;;;5.60;3.58;;;28.80;64.30;;;;;;4985334;28;20795;-66
2022/07/17 15:05:49;;;;;;;7.28;4.28;;;28.90;64.70;;;;;;4984790;28;20046;-66
2022/07/17 15:08:14;;;;;;;6.07;4.20;;;28.80;63.70;;;;;;4989544;28;20510;-66
2022/07/17 15:10:40;;;;;;;7.10;3.85;;;29.30;65.60;;;;;;4989470;28;20042;-66
2022/07/17 15:13:06;;;;;;;5.78;4.00;;;29.60;65.10;;;;;;4982900;28;20118;-66
2022/07/17 15:15:31;;;;;;;5.70;3.80;;;29.80;63.40;;;;;;4974032;28;20038;-66
2022/07/17 15:17:57;;;;;;;6.82;4.43;;;30.20;61.20;;;;;;4982263;28;20069;-66
2022/07/17 15:20:24;;;;;;;8.40;4.50;;;30.40;57.60;;;;;;4989326;28;20046;-66
2022/07/17 15:22:49;;;;;;;6.95;4.45;;;30.70;56.50;;;;;;4988996;28;20049;-66
2022/07/17 15:25:15;;;;;;;6.30;4.32;;;30.70;57.70;;;;;;4983102;28;20039;-66
2022/07/17 15:27:40;;;;;;;6.40;4.32;;;30.40;57.00;;;;;;4979602;28;20480;-66
2022/07/17 15:30:07;;;;;;;6.82;4.45;;;30.00;57.20;;;;;;4970031;28;20566;-67
2022/07/17 15:32:34;;;;;;;8.30;4.50;;;29.80;56.60;;;;;;4980652;28;20048;-66
2022/07/17 15:35:00;;;;;;;7.05;4.60;;;29.80;57.20;;;;;;4984987;28;20117;-67
2022/07/17 15:37:26;;;;;;;7.72;4.85;;;29.90;56.30;;;;;;4973728;28;20118;-67
2022/07/17 15:39:52;;;;;;;6.32;4.18;;;30.00;56.50;;;;;;4971119;28;20500;-66
2022/07/17 15:42:17;;;;;;;7.97;4.38;;;29.90;56.60;;;;;;4976714;28;20447;-67
2022/07/17 15:44:43;;;;;;;6.70;4.32;;;29.40;56.20;;;;;;4988994;28;20554;-67
2022/07/17 15:47:09;;;;;;;7.20;4.47;;;29.20;56.40;;;;;;4992316;28;20070;-67
2022/07/17 15:49:34;;;;;;;7.93;4.60;;;29.00;57.50;;;;;;4984024;28;20042;-67
2022/07/17 15:52:00;;;;;;;6.60;4.30;;;29.00;57.20;;;;;;4986754;28;20042;-67
2022/07/17 15:54:26;;;;;;;6.60;4.10;;;29.00;58.90;;;;;;4986721;28;20030;-67
2022/07/17 15:56:51;;;;;;;10.85;4.10;;;29.00;58.40;;;;;;4992166;28;20414;-67
2022/07/17 15:59:17;;;;;;;6.82;3.95;;;28.90;59.60;;;;;;4986743;28;20526;-67
2022/07/17 16:01:43;;;;;;;6.43;4.10;;;29.10;59.60;;;;;;4990418;28;20034;-67
2022/07/17 16:04:09;;;;;;;6.40;4.30;;;28.80;59.10;;;;;;4995440;28;20050;-67
2022/07/17 16:06:35;;;;;;;6.05;4.22;;;28.80;61.60;;;;;;4994259;28;20155;-67
2022/07/17 16:09:00;;;;;;;6.70;4.05;;;28.60;60.10;;;;;;4982059;28;20109;-67
2022/07/17 16:11:27;;;;;;;7.05;3.80;;;28.20;60.10;;;;;;4997769;28;20112;-67
2022/07/17 16:13:53;;;;;;;4.78;3.53;;;28.30;60.80;;;;;;4985948;28;20047;-67
2022/07/17 16:16:18;;;;;;;6.65;4.00;;;28.40;60.50;;;;;;4976854;28;20038;-67
2022/07/17 16:18:44;;;;;;;8.15;4.10;;;28.70;59.40;;;;;;4984355;28;20080;-67
2022/07/17 16:21:13;;;;;;;5.65;3.83;;;29.10;59.80;;;;;;4990887;28;20121;-67
2022/07/17 16:23:39;;;;;;;5.82;3.80;;;29.70;58.00;;;;;;4980538;28;20043;-68
2022/07/17 16:26:04;;;;;;;5.85;3.83;;;30.40;57.80;;;;;;4988187;28;20030;-67
2022/07/17 16:28:31;;;;;;;5.60;3.90;;;31.00;57.20;;;;;;5006318;28;20037;-67
2022/07/17 16:30:57;;;;;;;5.97;4.10;;;31.20;56.00;;;;;;5006789;28;20061;-67
2022/07/17 16:33:23;;;;;;;6.78;3.88;;;31.10;55.70;;;;;;4990265;28;20042;-67
2022/07/17 16:35:48;;;;;;;5.85;4.03;;;31.20;54.90;;;;;;4990949;28;20103;-67
2022/07/17 16:38:15;;;;;;;7.03;4.10;;;31.60;54.40;;;;;;4991267;28;20042;-67
2022/07/17 16:40:41;;;;;;;6.25;3.63;;;32.00;53.40;;;;;;4975683;28;20049;-67
2022/07/17 16:43:07;;;;;;;5.45;3.97;;;32.50;53.00;;;;;;4985770;28;20060;-67
2022/07/17 16:45:33;;;;;;;9.82;3.72;;;32.90;51.60;;;;;;4988428;28;20051;-67
2022/07/17 16:47:59;;;;;;;7.15;4.00;;;33.20;50.60;;;;;;4977700;28;20557;-67
2022/07/17 16:50:26;;;;;;;5.97;3.53;;;33.30;50.80;;;;;;4983380;28;20045;-67
2022/07/17 16:52:53;;;;;;;6.25;3.50;;;33.50;50.40;;;;;;4986455;28;20034;-67
2022/07/17 16:55:19;;;;;;;6.15;3.55;;;33.80;49.10;;;;;;4991261;28;20736;-67
2022/07/17 16:57:44;;;;;;;4.72;3.38;;;33.70;49.30;;;;;;4980346;28;20134;-67
2022/07/17 17:00:11;;;;;;;4.93;3.40;;;33.30;50.30;;;;;;4991046;28;20034;-68
2022/07/17 17:02:37;;;;;;;5.53;3.30;;;33.40;49.30;;;;;;4990790;28;20085;-67
2022/07/17 17:05:05;;;;;;;5.45;3.50;;;33.80;48.40;;;;;;4985567;28;20038;-68
2022/07/17 17:07:31;;;;;;;5.40;3.50;;;34.00;47.80;;;;;;4976211;28;20042;-68
2022/07/17 17:09:57;;;;;;;6.15;3.40;;;34.20;47.70;;;;;;4995101;28;20089;-68
2022/07/17 17:12:23;;;;;;;4.82;3.40;;;34.00;47.20;;;;;;4988580;28;20406;-68
2022/07/17 17:14:48;;;;;;;4.22;3.20;;;34.00;47.40;;;;;;4978159;28;20051;-68
2022/07/17 17:17:14;;;;;;;7.28;3.75;;;33.80;47.90;;;;;;4990542;28;20037;-68
2022/07/17 17:19:40;;;;;;;5.03;3.63;;;33.60;48.10;;;;;;4995189;28;20030;-68
2022/07/17 17:22:05;;;;;;;6.20;3.40;;;33.60;47.50;;;;;;4991400;28;20070;-68
2022/07/17 17:24:31;;;;;;;4.78;3.40;;;33.40;48.00;;;;;;4989820;28;20042;-68
2022/07/17 17:26:56;;;;;;;5.38;3.72;;;33.40;47.80;;;;;;4990570;28;20038;-68